Clear Lake, South Dakota
Current Conditions -  °F | °C
As of 1:34 PM on Friday 31 Oct 2014 (Local Time) from KCNB Reporting Station
Clear Clear  
Wind Chill: 34°   Ceiling: Unl
Heat Index: 34°   Visibility: 10mi
Dew Point: 23°   Wind: 3mph
Humidity: 62%   Direction: 70°ENE
Pressure: 30.56"   Gusts: NA
Location:  44.75°N, 96.68°W
Report Text: KCNB 311834Z AUTO 07003KT 10SM CLR 01/M05 A3056 RMK AO2 T00131052
Loading
Personal Weather Stations






























Interactive Weather Map
Tropical Storm Tracking
New forecast layout! Learn more

10-Day Weather Forecast

Advertisements
Track Severe Weather on mobile